Time;durP1;ratioP1;P1;durP2;ratioP2;P2;SDS_P1;SDS_P2;PMS_P1;PMS_P2;Temp;Humidity;BMP_temperature;BMP_pressure;BME280_temperature;BME280_humidity;BME280_pressure;Samples;Min_cycle;Max_cycle;Signal;HPM_P1;HPM_P2
2021/12/27 00:01:33;;;;;;;7.90;6.87;;;8.70;99.90;;;;;;5075421;28;20517;-57
2021/12/27 00:04:00;;;;;;;10.97;9.80;;;8.70;99.90;;;;;;5075477;28;20424;-57
2021/12/27 00:06:27;;;;;;;10.07;8.67;;;8.80;99.90;;;;;;5075944;28;20452;-57
2021/12/27 00:08:54;;;;;;;10.17;8.20;;;8.80;99.90;;;;;;5075397;28;20927;-57
2021/12/27 00:11:21;;;;;;;8.43;7.53;;;8.90;99.90;;;;;;5075183;28;20571;-57
2021/12/27 00:13:49;;;;;;;10.33;7.80;;;8.90;99.90;;;;;;5075409;28;20494;-57
2021/12/27 00:16:17;;;;;;;7.33;6.63;;;9.00;99.90;;;;;;5075167;28;20961;-57
2021/12/27 00:18:44;;;;;;;7.30;6.70;;;9.00;99.90;;;;;;5075372;28;20542;-56
2021/12/27 00:21:11;;;;;;;7.20;6.43;;;8.90;99.90;;;;;;5075500;28;20496;-56
2021/12/27 00:23:39;;;;;;;9.63;7.50;;;8.70;99.90;;;;;;5075155;28;20451;-56
2021/12/27 00:26:07;;;;;;;8.10;7.30;;;8.70;99.90;;;;;;5074781;28;20444;-57
2021/12/27 00:28:35;;;;;;;8.20;7.37;;;8.70;99.90;;;;;;5075173;28;20448;-57
2021/12/27 00:31:03;;;;;;;8.87;7.90;;;8.70;99.90;;;;;;5075320;28;20472;-57
2021/12/27 00:33:32;;;;;;;10.60;7.60;;;8.80;99.90;;;;;;5074826;28;20459;-57
2021/12/27 00:36:00;;;;;;;8.67;7.17;;;8.80;99.90;;;;;;5074926;28;20452;-56
2021/12/27 00:38:27;;;;;;;8.80;6.80;;;8.80;99.90;;;;;;5075265;28;20448;-56
2021/12/27 00:40:54;;;;;;;8.60;7.60;;;8.80;99.90;;;;;;5074649;28;20555;-57
2021/12/27 00:43:21;;;;;;;8.63;7.80;;;8.80;99.90;;;;;;5074837;28;20783;-56
2021/12/27 00:45:48;;;;;;;7.90;6.93;;;8.80;99.90;;;;;;5075061;28;20445;-57
2021/12/27 00:48:17;;;;;;;7.13;6.43;;;8.70;99.90;;;;;;5074852;28;20787;-56
2021/12/27 00:50:46;;;;;;;8.17;7.40;;;8.80;99.90;;;;;;5074393;28;20933;-57
2021/12/27 00:53:13;;;;;;;9.80;7.50;;;8.80;99.90;;;;;;5074897;28;20532;-57
2021/12/27 00:55:40;;;;;;;7.80;6.93;;;8.90;99.90;;;;;;5074576;28;20480;-57
2021/12/27 00:58:07;;;;;;;8.90;6.40;;;8.80;99.90;;;;;;5074776;28;20452;-57
2021/12/27 01:00:35;;;;;;;7.77;6.97;;;8.90;99.90;;;;;;5074623;28;20468;-56
2021/12/27 01:03:02;;;;;;;7.30;6.60;;;8.90;99.90;;;;;;5074695;28;20451;-57
2021/12/27 01:05:29;;;;;;;8.07;6.77;;;8.90;99.90;;;;;;5074548;28;20522;-57
2021/12/27 01:07:59;;;;;;;8.07;7.00;;;8.90;99.90;;;;;;5074329;28;20440;-57
2021/12/27 01:11:00;;;;;;;8.83;7.93;;;8.90;99.90;;;;;;5072894;28;20570;-57
2021/12/27 01:13:38;;;;;;;8.27;7.47;;;9.00;99.90;;;;;;5074522;28;20501;-56
2021/12/27 01:16:12;;;;;;;12.07;7.50;;;8.80;99.90;;;;;;5074531;28;20496;-57
2021/12/27 01:18:43;;;;;;;8.20;6.67;;;8.70;99.90;;;;;;5074555;28;20421;-57
2021/12/27 01:21:11;;;;;;;7.80;7.00;;;8.80;99.90;;;;;;5074058;28;20466;-57
2021/12/27 01:23:40;;;;;;;6.70;6.03;;;8.80;99.90;;;;;;5074154;28;20448;-57
2021/12/27 01:26:07;;;;;;;7.80;7.00;;;8.80;99.90;;;;;;5073988;28;20440;-57
2021/12/27 01:28:35;;;;;;;9.33;8.43;;;8.80;99.90;;;;;;5073782;28;20519;-56
2021/12/27 01:31:02;;;;;;;7.93;7.07;;;8.90;99.90;;;;;;5074107;28;20465;-56
2021/12/27 01:33:30;;;;;;;9.53;7.10;;;8.80;99.90;;;;;;5074309;28;20484;-56
2021/12/27 01:35:58;;;;;;;7.50;6.43;;;8.70;99.90;;;;;;5073309;28;20480;-57
2021/12/27 01:38:25;;;;;;;9.47;7.50;;;8.70;99.90;;;;;;5073577;28;20803;-56
2021/12/27 01:40:56;;;;;;;8.90;7.40;;;8.70;99.90;;;;;;5074019;28;20464;-56
2021/12/27 01:43:25;;;;;;;8.80;8.00;;;8.70;99.90;;;;;;5073751;28;20409;-57
2021/12/27 01:45:54;;;;;;;7.40;6.80;;;8.80;99.90;;;;;;5073953;28;20444;-57
2021/12/27 01:48:24;;;;;;;10.43;6.90;;;8.80;99.90;;;;;;5073754;28;20440;-57
2021/12/27 01:50:53;;;;;;;7.63;6.83;;;8.80;99.90;;;;;;5073523;28;20468;-57
2021/12/27 01:53:22;;;;;;;11.80;7.63;;;8.80;99.90;;;;;;5073308;28;20448;-57
2021/12/27 01:55:49;;;;;;;11.87;7.20;;;8.80;99.90;;;;;;5073506;28;20845;-57
2021/12/27 01:58:19;;;;;;;8.40;7.23;;;8.90;99.90;;;;;;5073791;28;20875;-57
2021/12/27 02:00:49;;;;;;;7.60;6.80;;;8.80;99.90;;;;;;5073467;28;20465;-57
2021/12/27 02:03:18;;;;;;;9.50;7.73;;;8.80;99.90;;;;;;5073624;28;20448;-56
2021/12/27 02:05:45;;;;;;;10.60;7.07;;;8.80;99.90;;;;;;5073396;28;20453;-57
2021/12/27 02:08:12;;;;;;;9.63;8.10;;;8.70;99.90;;;;;;5073593;28;20807;-57
2021/12/27 02:10:41;;;;;;;9.63;8.07;;;8.80;99.90;;;;;;5072976;28;20523;-56
2021/12/27 02:13:08;;;;;;;9.27;7.43;;;8.70;99.90;;;;;;5073406;28;20800;-57
2021/12/27 02:15:37;;;;;;;7.63;6.53;;;8.60;99.90;;;;;;5073121;28;20482;-56
2021/12/27 02:18:05;;;;;;;9.67;7.97;;;8.70;99.90;;;;;;5073310;28;20444;-57
2021/12/27 02:20:35;;;;;;;9.67;7.53;;;8.60;99.90;;;;;;5073033;28;21017;-57
2021/12/27 02:23:07;;;;;;;10.33;7.90;;;8.40;99.90;;;;;;5073388;28;20448;-56
2021/12/27 02:25:35;;;;;;;8.27;6.53;;;8.50;99.90;;;;;;5073040;28;20425;-57
2021/12/27 02:28:05;;;;;;;10.40;7.60;;;8.40;99.90;;;;;;5073249;28;20543;-57
2021/12/27 02:30:34;;;;;;;9.37;7.17;;;8.50;99.90;;;;;;5072824;28;20829;-57
2021/12/27 02:33:07;;;;;;;10.03;8.13;;;8.50;99.90;;;;;;5073147;28;20444;-57
2021/12/27 02:35:38;;;;;;;8.30;7.47;;;8.60;99.90;;;;;;5072785;28;20974;-57
2021/12/27 02:38:06;;;;;;;8.57;7.43;;;8.50;99.90;;;;;;5073235;28;20447;-57
2021/12/27 02:40:34;;;;;;;9.60;8.70;;;8.50;99.90;;;;;;5072896;28;20468;-56
2021/12/27 02:43:05;;;;;;;8.00;7.17;;;8.40;99.90;;;;;;5072835;28;20547;-56
2021/12/27 02:45:36;;;;;;;8.80;6.80;;;8.50;99.90;;;;;;5073116;28;20432;-57
2021/12/27 02:48:04;;;;;;;8.77;6.90;;;8.40;99.90;;;;;;5074591;28;20429;-57
2021/12/27 02:50:32;;;;;;;7.33;6.63;;;8.50;99.90;;;;;;5076898;28;20468;-56
2021/12/27 02:53:01;;;;;;;8.70;6.90;;;8.60;99.90;;;;;;5077201;28;20449;-57
2021/12/27 02:55:29;;;;;;;8.20;7.00;;;8.60;99.90;;;;;;5076667;28;20484;-57
2021/12/27 02:57:56;;;;;;;7.90;6.23;;;8.50;99.90;;;;;;5077206;28;20543;-57
2021/12/27 03:00:27;;;;;;;9.10;7.27;;;8.50;99.90;;;;;;5076785;28;20468;-57
2021/12/27 03:02:55;;;;;;;6.90;6.07;;;8.50;99.90;;;;;;5076822;28;20439;-57
2021/12/27 03:05:24;;;;;;;8.37;7.37;;;8.40;99.90;;;;;;5076728;28;20450;-57
2021/12/27 03:07:52;;;;;;;6.37;5.77;;;8.40;99.90;;;;;;5076913;28;20433;-57
2021/12/27 03:10:23;;;;;;;8.23;5.80;;;8.40;99.90;;;;;;5076127;28;20472;-57
2021/12/27 03:12:52;;;;;;;7.57;6.00;;;8.40;99.90;;;;;;5076558;28;20923;-57
2021/12/27 03:15:22;;;;;;;7.10;6.10;;;8.40;99.90;;;;;;5076663;28;20486;-57
2021/12/27 03:17:50;;;;;;;7.43;6.63;;;8.30;99.90;;;;;;5076543;28;20448;-57
2021/12/27 03:20:20;;;;;;;7.30;6.60;;;8.30;99.90;;;;;;5076480;28;20817;-56
2021/12/27 03:22:47;;;;;;;7.50;6.13;;;8.30;99.90;;;;;;5076210;28;20448;-57
2021/12/27 03:25:17;;;;;;;7.63;6.90;;;8.30;99.90;;;;;;5076725;28;20467;-57
2021/12/27 03:27:46;;;;;;;8.00;5.90;;;8.20;99.90;;;;;;5076474;28;20481;-57
2021/12/27 03:30:16;;;;;;;7.77;6.07;;;8.30;99.90;;;;;;5075916;28;20817;-57
2021/12/27 03:32:45;;;;;;;6.53;5.40;;;8.30;99.90;;;;;;5076303;28;20957;-57
2021/12/27 03:35:16;;;;;;;5.33;4.83;;;8.40;99.90;;;;;;5075959;28;20819;-57
2021/12/27 03:37:45;;;;;;;6.37;5.77;;;8.40;99.90;;;;;;5076303;28;20437;-56
2021/12/27 03:40:15;;;;;;;7.03;5.57;;;8.40;99.90;;;;;;5076030;28;20470;-57
2021/12/27 03:42:43;;;;;;;7.03;6.07;;;8.50;99.90;;;;;;5076033;28;20428;-56
2021/12/27 03:45:11;;;;;;;6.60;5.30;;;8.50;99.90;;;;;;5076039;28;20440;-56
2021/12/27 03:47:39;;;;;;;5.73;5.23;;;8.40;99.90;;;;;;5075847;28;20459;-56
2021/12/27 03:50:07;;;;;;;5.53;4.67;;;8.40;99.90;;;;;;5076053;28;20464;-56
2021/12/27 03:52:34;;;;;;;5.77;4.40;;;8.40;99.90;;;;;;5075617;28;20448;-57
2021/12/27 03:55:01;;;;;;;4.90;4.40;;;8.50;99.90;;;;;;5075817;28;20503;-57
2021/12/27 03:57:28;;;;;;;5.10;4.60;;;8.60;99.90;;;;;;5076086;28;20455;-57
2021/12/27 04:00:15;;;;;;;4.90;4.50;;;8.60;99.90;;;;;;5074282;28;20950;-57
2021/12/27 04:02:44;;;;;;;5.70;5.10;;;8.70;99.90;;;;;;5075811;28;20436;-57
2021/12/27 04:05:11;;;;;;;5.40;4.80;;;8.70;99.90;;;;;;5075309;28;20957;-55
2021/12/27 04:07:39;;;;;;;4.53;4.10;;;8.60;99.90;;;;;;5075429;28;20448;-55
2021/12/27 04:10:09;;;;;;;4.90;4.40;;;8.60;99.90;;;;;;5075305;28;21009;-55
2021/12/27 04:12:37;;;;;;;5.60;4.50;;;8.70;99.90;;;;;;5075277;28;20942;-55
2021/12/27 04:15:07;;;;;;;4.53;4.10;;;8.60;99.90;;;;;;5075471;28;20489;-56
2021/12/27 04:17:34;;;;;;;5.03;4.07;;;8.70;99.90;;;;;;5075322;28;20818;-55
2021/12/27 04:20:04;;;;;;;4.60;3.80;;;8.70;99.90;;;;;;5075313;28;20516;-55
2021/12/27 04:22:33;;;;;;;4.60;4.20;;;8.70;99.90;;;;;;5075047;28;20451;-56
2021/12/27 04:25:00;;;;;;;4.90;4.10;;;8.60;99.90;;;;;;5075202;28;20944;-57
2021/12/27 04:27:27;;;;;;;4.07;3.50;;;8.60;99.90;;;;;;5074992;28;20444;-56
2021/12/27 04:29:55;;;;;;;4.23;3.90;;;8.60;99.90;;;;;;5075097;28;20451;-56
2021/12/27 04:32:22;;;;;;;3.90;3.60;;;8.80;99.90;;;;;;5075342;28;20449;-56
2021/12/27 04:34:49;;;;;;;3.80;3.40;;;8.80;99.90;;;;;;5074772;28;20455;-56
2021/12/27 04:37:18;;;;;;;3.43;3.03;;;8.60;99.90;;;;;;5075222;28;20456;-57
2021/12/27 04:39:45;;;;;;;3.90;3.60;;;8.70;99.90;;;;;;5075074;28;20531;-56
2021/12/27 04:42:12;;;;;;;5.10;3.30;;;8.70;99.90;;;;;;5074756;28;20535;-56
2021/12/27 04:44:39;;;;;;;4.07;3.37;;;8.60;99.90;;;;;;5074927;28;20539;-56
2021/12/27 04:47:07;;;;;;;4.17;3.77;;;8.60;99.90;;;;;;5075029;28;20448;-56
2021/12/27 04:49:35;;;;;;;3.90;3.60;;;8.60;99.90;;;;;;5075022;28;20453;-56
2021/12/27 04:52:02;;;;;;;4.43;3.80;;;8.70;99.90;;;;;;5074416;28;20583;-56
2021/12/27 04:54:30;;;;;;;3.57;3.20;;;8.70;99.90;;;;;;5074651;28;20424;-56
2021/12/27 04:56:57;;;;;;;3.57;3.27;;;8.60;99.90;;;;;;5074791;28;20483;-56
2021/12/27 04:59:25;;;;;;;3.73;3.43;;;8.70;99.90;;;;;;5074420;28;20519;-56
2021/12/27 05:01:52;;;;;;;4.13;3.67;;;8.60;99.90;;;;;;5074472;28;20555;-57
2021/12/27 05:04:19;;;;;;;4.00;3.70;;;8.70;99.90;;;;;;5074314;28;20452;-57
2021/12/27 05:06:46;;;;;;;4.30;3.90;;;8.70;99.90;;;;;;5074539;28;20475;-57
2021/12/27 05:09:13;;;;;;;3.50;3.20;;;8.70;99.90;;;;;;5074346;28;20783;-57
2021/12/27 05:11:42;;;;;;;3.27;2.87;;;8.70;99.90;;;;;;5073854;28;20484;-57
2021/12/27 05:14:09;;;;;;;4.40;2.90;;;8.70;99.90;;;;;;5074105;28;20429;-57
2021/12/27 05:16:36;;;;;;;3.13;2.83;;;8.60;99.90;;;;;;5073959;28;20998;-57
2021/12/27 05:19:07;;;;;;;3.23;2.80;;;8.50;99.90;;;;;;5074388;28;20455;-57
2021/12/27 05:21:34;;;;;;;3.30;2.90;;;8.50;99.90;;;;;;5073794;28;20468;-57
2021/12/27 05:24:01;;;;;;;3.00;2.63;;;8.60;99.90;;;;;;5074234;28;20484;-56
2021/12/27 05:26:28;;;;;;;3.57;2.83;;;8.60;99.90;;;;;;5074297;28;20451;-57
2021/12/27 05:28:57;;;;;;;3.73;2.83;;;8.60;99.90;;;;;;5073767;28;20425;-57
2021/12/27 05:31:24;;;;;;;4.03;3.10;;;8.70;99.90;;;;;;5073998;28;20487;-57
2021/12/27 05:33:52;;;;;;;3.03;2.83;;;8.70;99.90;;;;;;5074106;28;20450;-57
2021/12/27 05:36:19;;;;;;;3.13;2.83;;;8.70;99.90;;;;;;5073895;28;20492;-57
2021/12/27 05:38:46;;;;;;;3.20;2.93;;;8.80;99.90;;;;;;5073962;28;20493;-57
2021/12/27 05:41:13;;;;;;;3.93;3.53;;;8.70;99.90;;;;;;5073694;28;20495;-57
2021/12/27 05:43:40;;;;;;;3.40;3.10;;;8.60;99.90;;;;;;5073567;28;20445;-57
2021/12/27 05:46:09;;;;;;;3.90;3.60;;;8.60;99.90;;;;;;5073465;28;20960;-55
2021/12/27 05:48:36;;;;;;;3.70;3.30;;;8.60;99.90;;;;;;5073379;28;20927;-56
2021/12/27 05:51:03;;;;;;;3.53;3.13;;;8.60;99.90;;;;;;5073730;28;20563;-55
2021/12/27 05:53:30;;;;;;;4.00;3.60;;;8.60;99.90;;;;;;5073649;28;20452;-56
2021/12/27 05:55:57;;;;;;;3.37;2.90;;;8.60;99.90;;;;;;5073216;28;20990;-55
2021/12/27 05:58:25;;;;;;;4.50;3.53;;;8.60;99.90;;;;;;5073708;28;20444;-55
2021/12/27 06:00:53;;;;;;;3.17;2.97;;;8.70;99.90;;;;;;5073103;28;20559;-55
2021/12/27 06:03:21;;;;;;;3.50;3.20;;;8.70;99.90;;;;;;5073225;28;20445;-56
2021/12/27 06:05:49;;;;;;;3.63;3.00;;;8.60;99.90;;;;;;5073405;28;20448;-55
2021/12/27 06:08:16;;;;;;;4.40;3.17;;;8.50;99.90;;;;;;5073448;28;20498;-57
2021/12/27 06:10:43;;;;;;;4.30;3.67;;;8.50;99.90;;;;;;5072753;28;20484;-57
2021/12/27 06:13:10;;;;;;;4.10;3.80;;;8.50;99.90;;;;;;5073126;28;20480;-56
2021/12/27 06:15:37;;;;;;;4.00;3.70;;;8.40;99.90;;;;;;5073255;28;20484;-56
2021/12/27 06:18:05;;;;;;;3.93;3.40;;;8.40;99.90;;;;;;5073350;28;20448;-56
2021/12/27 06:20:33;;;;;;;3.27;2.97;;;8.40;99.90;;;;;;5073402;28;20536;-57
2021/12/27 06:23:00;;;;;;;3.53;3.23;;;8.40;99.90;;;;;;5072692;28;20448;-56
2021/12/27 06:25:28;;;;;;;3.80;3.50;;;8.30;99.90;;;;;;5072940;28;20448;-56
2021/12/27 06:27:56;;;;;;;3.60;3.20;;;8.30;99.90;;;;;;5073079;28;20452;-56
2021/12/27 06:30:23;;;;;;;4.07;3.03;;;8.20;99.90;;;;;;5073603;28;20469;-56
2021/12/27 06:32:50;;;;;;;3.63;3.40;;;8.20;99.90;;;;;;5073208;28;20454;-57
2021/12/27 06:35:19;;;;;;;2.90;2.67;;;8.20;99.90;;;;;;5073181;28;20471;-56
2021/12/27 06:37:48;;;;;;;4.07;3.77;;;8.20;99.90;;;;;;5073199;28;20456;-56
2021/12/27 06:40:17;;;;;;;3.90;3.50;;;8.20;99.90;;;;;;5072805;28;20472;-57
2021/12/27 06:42:44;;;;;;;3.70;3.40;;;8.10;99.90;;;;;;5073096;28;20455;-57
2021/12/27 06:45:12;;;;;;;3.40;3.20;;;8.20;99.90;;;;;;5072980;28;20433;-57
2021/12/27 06:47:39;;;;;;;3.60;3.30;;;8.10;99.90;;;;;;5072762;28;20928;-57
2021/12/27 06:50:08;;;;;;;3.80;3.50;;;8.20;99.90;;;;;;5072695;28;20471;-56
2021/12/27 06:52:35;;;;;;;3.40;3.10;;;8.20;99.90;;;;;;5072797;28;20444;-57
2021/12/27 06:55:05;;;;;;;3.80;3.50;;;8.00;99.90;;;;;;5072615;28;20927;-56
2021/12/27 06:57:32;;;;;;;3.23;3.03;;;8.00;99.90;;;;;;5072528;28;20484;-57
2021/12/27 07:00:01;;;;;;;3.90;3.53;;;7.90;99.90;;;;;;5073061;28;20476;-56
2021/12/27 07:02:28;;;;;;;3.67;3.37;;;7.90;99.90;;;;;;5072956;28;20452;-56
2021/12/27 07:04:55;;;;;;;4.00;3.57;;;8.00;99.90;;;;;;5072870;28;20546;-56
2021/12/27 07:07:22;;;;;;;3.90;3.50;;;8.10;99.90;;;;;;5073157;28;20452;-57
2021/12/27 07:09:49;;;;;;;4.90;3.63;;;7.90;99.90;;;;;;5072326;28;20542;-57
2021/12/27 07:12:18;;;;;;;6.13;4.63;;;7.90;99.90;;;;;;5072789;28;20428;-57
2021/12/27 07:14:47;;;;;;;3.40;3.10;;;8.00;99.90;;;;;;5072855;28;20535;-56
2021/12/27 07:17:14;;;;;;;3.77;3.47;;;7.70;99.90;;;;;;5072871;28;20573;-56
2021/12/27 07:19:41;;;;;;;5.00;4.17;;;7.70;99.90;;;;;;5072360;28;20876;-57
2021/12/27 07:22:09;;;;;;;3.83;3.50;;;7.60;99.90;;;;;;5072421;28;20539;-56
2021/12/27 07:24:36;;;;;;;4.70;4.30;;;7.60;99.90;;;;;;5072423;28;20452;-56
2021/12/27 07:27:03;;;;;;;4.33;3.80;;;7.60;99.90;;;;;;5072695;28;20869;-56
2021/12/27 07:29:32;;;;;;;4.87;4.10;;;7.60;99.90;;;;;;5072482;28;20454;-56
2021/12/27 07:31:59;;;;;;;5.43;4.00;;;7.70;99.90;;;;;;5072273;28;20471;-56
2021/12/27 07:34:27;;;;;;;4.87;4.47;;;7.70;99.90;;;;;;5074505;28;20451;-56
2021/12/27 07:36:57;;;;;;;4.10;3.80;;;7.70;99.90;;;;;;5076177;28;20506;-57
2021/12/27 07:39:26;;;;;;;4.40;4.07;;;7.70;99.90;;;;;;5076298;28;20802;-56
2021/12/27 07:41:56;;;;;;;4.67;4.10;;;7.80;99.90;;;;;;5076028;28;20886;-57
2021/12/27 07:44:23;;;;;;;3.87;3.30;;;7.80;99.90;;;;;;5075985;28;20451;-56
2021/12/27 07:46:52;;;;;;;5.27;4.33;;;7.80;99.90;;;;;;5075683;28;20437;-56
2021/12/27 07:49:19;;;;;;;6.20;4.20;;;7.80;99.90;;;;;;5076030;28;20535;-56
2021/12/27 07:51:47;;;;;;;5.60;5.10;;;7.80;99.90;;;;;;5075414;28;20445;-56
2021/12/27 07:54:14;;;;;;;4.40;4.07;;;7.70;99.90;;;;;;5075777;28;20542;-58
2021/12/27 07:56:41;;;;;;;4.30;3.90;;;7.80;99.90;;;;;;5075610;28;20487;-57
2021/12/27 07:59:09;;;;;;;4.03;3.77;;;7.90;99.90;;;;;;5075837;28;20851;-57
2021/12/27 08:01:38;;;;;;;4.53;3.83;;;8.00;99.90;;;;;;5075307;28;20476;-57
2021/12/27 08:04:08;;;;;;;4.73;4.10;;;8.10;99.90;;;;;;5075841;28;20799;-57
2021/12/27 08:06:36;;;;;;;5.17;4.57;;;8.10;99.90;;;;;;5075763;28;20818;-57
2021/12/27 08:09:04;;;;;;;4.77;4.30;;;8.00;99.90;;;;;;5075304;28;20448;-57
2021/12/27 08:11:31;;;;;;;4.80;4.10;;;8.00;99.90;;;;;;5075136;28;20841;-57
2021/12/27 08:13:59;;;;;;;4.53;4.20;;;8.00;99.90;;;;;;5075721;28;20454;-57
2021/12/27 08:16:27;;;;;;;7.87;4.83;;;7.90;99.90;;;;;;5075124;28;20476;-57
2021/12/27 08:18:55;;;;;;;5.17;4.67;;;8.00;99.90;;;;;;5075259;28;20841;-57
2021/12/27 08:21:25;;;;;;;5.27;3.83;;;8.10;99.90;;;;;;5075159;28;20474;-57
2021/12/27 08:23:53;;;;;;;5.37;4.10;;;8.30;99.90;;;;;;5074734;28;21032;-57
2021/12/27 08:26:21;;;;;;;3.87;3.50;;;8.40;99.90;;;;;;5075419;28;20440;-57
2021/12/27 08:28:51;;;;;;;6.60;4.33;;;8.30;99.90;;;;;;5075086;28;20543;-57
2021/12/27 08:31:18;;;;;;;4.27;3.87;;;8.20;99.90;;;;;;5074770;28;20469;-57
2021/12/27 08:33:46;;;;;;;4.47;4.07;;;8.30;99.90;;;;;;5075192;28;20444;-57
2021/12/27 08:36:13;;;;;;;4.30;3.90;;;8.30;99.90;;;;;;5075240;28;20490;-56
2021/12/27 08:38:44;;;;;;;4.33;3.90;;;8.20;99.90;;;;;;5075060;28;20451;-56
2021/12/27 08:41:12;;;;;;;4.80;4.07;;;8.30;99.90;;;;;;5074634;28;20478;-56
2021/12/27 08:43:39;;;;;;;3.80;3.50;;;8.40;99.90;;;;;;5074873;28;20443;-56
2021/12/27 08:46:06;;;;;;;3.67;3.43;;;8.50;99.90;;;;;;5074488;28;20444;-57
2021/12/27 08:48:34;;;;;;;3.73;3.40;;;8.60;99.90;;;;;;5074412;28;21015;-56
2021/12/27 08:51:01;;;;;;;7.00;3.43;;;8.80;99.90;;;;;;5074370;28;21083;-56
2021/12/27 08:53:32;;;;;;;3.77;3.47;;;8.80;99.90;;;;;;5074951;28;20485;-56
2021/12/27 08:56:02;;;;;;;4.70;4.27;;;8.90;99.90;;;;;;5074541;28;20500;-57
2021/12/27 08:58:30;;;;;;;4.40;4.03;;;9.10;99.90;;;;;;5074501;28;20927;-56
2021/12/27 09:01:01;;;;;;;4.70;4.20;;;9.10;99.90;;;;;;5074682;28;20519;-57
2021/12/27 09:03:31;;;;;;;5.50;4.17;;;9.20;99.90;;;;;;5074523;28;20484;-56
2021/12/27 09:05:58;;;;;;;4.10;3.70;;;9.10;99.90;;;;;;5074700;28;20488;-56
2021/12/27 09:08:26;;;;;;;5.70;4.40;;;9.10;99.90;;;;;;5074413;28;20459;-56
2021/12/27 09:10:58;;;;;;;3.97;3.67;;;9.10;99.90;;;;;;5073543;28;20520;-56
2021/12/27 09:13:28;;;;;;;3.83;3.53;;;8.90;99.90;;;;;;5074450;28;20444;-57
2021/12/27 09:15:55;;;;;;;5.80;5.23;;;9.00;99.90;;;;;;5074564;28;20527;-57
2021/12/27 09:18:23;;;;;;;4.63;4.13;;;9.00;99.90;;;;;;5074036;28;20533;-57
2021/12/27 09:20:50;;;;;;;5.70;4.27;;;8.90;99.90;;;;;;5073978;28;20464;-57
2021/12/27 09:23:17;;;;;;;7.00;5.00;;;8.90;99.90;;;;;;5073771;28;20444;-57
2021/12/27 09:25:47;;;;;;;4.23;3.83;;;;;;;;;;5074271;28;20815;-56
2021/12/27 09:28:14;;;;;;;4.40;4.10;;;8.90;99.90;;;;;;5073818;28;20451;-57
2021/12/27 09:30:43;;;;;;;4.73;4.23;;;8.80;99.90;;;;;;5073590;28;20473;-56
2021/12/27 09:33:11;;;;;;;6.13;4.77;;;8.90;99.90;;;;;;5073874;28;20812;-56
2021/12/27 09:35:38;;;;;;;4.30;3.80;;;8.90;99.90;;;;;;5074045;28;20452;-57
2021/12/27 09:38:05;;;;;;;5.30;4.40;;;9.00;99.90;;;;;;5073796;28;20551;-57
2021/12/27 09:40:33;;;;;;;7.07;4.57;;;9.00;99.90;;;;;;5073564;28;20472;-56
2021/12/27 09:43:00;;;;;;;4.53;4.00;;;9.00;99.90;;;;;;5073950;28;20444;-56
2021/12/27 09:45:27;;;;;;;4.90;4.40;;;8.90;99.90;;;;;;5073497;28;20535;-56
2021/12/27 09:47:56;;;;;;;4.70;4.20;;;8.90;99.90;;;;;;5073763;28;20450;-57
2021/12/27 09:50:26;;;;;;;3.93;3.57;;;8.90;99.90;;;;;;5073663;28;20525;-57
2021/12/27 09:52:53;;;;;;;6.30;4.77;;;9.00;99.90;;;;;;5073510;28;20874;-57
2021/12/27 09:55:20;;;;;;;5.43;4.90;;;9.20;99.90;;;;;;5073436;28;20535;-57
2021/12/27 09:57:48;;;;;;;4.63;4.23;;;9.20;99.90;;;;;;5072918;28;20484;-57
2021/12/27 10:00:16;;;;;;;4.47;4.00;;;9.40;99.90;;;;;;5073315;28;20479;-57
2021/12/27 10:02:45;;;;;;;5.07;4.40;;;9.50;99.90;;;;;;5073584;28;20799;-57
2021/12/27 10:05:14;;;;;;;3.93;3.63;;;9.50;99.90;;;;;;5073341;28;20484;-57
2021/12/27 10:07:42;;;;;;;5.47;4.10;;;9.50;99.90;;;;;;5073459;28;20460;-57
2021/12/27 10:10:11;;;;;;;4.27;3.97;;;9.50;99.90;;;;;;5073239;28;20495;-57
2021/12/27 10:12:38;;;;;;;4.23;3.83;;;9.60;99.90;;;;;;5073203;28;20520;-57
2021/12/27 10:15:08;;;;;;;5.83;4.03;;;9.60;99.90;;;;;;5073780;28;20459;-57
2021/12/27 10:17:37;;;;;;;4.17;3.77;;;9.70;99.90;;;;;;5073104;28;20593;-55
2021/12/27 10:20:13;;;;;;;3.70;3.40;;;9.70;99.90;;;;;;5072835;28;20464;-55
2021/12/27 10:22:41;;;;;;;3.80;3.50;;;9.70;99.90;;;;;;5072880;28;20448;-57
2021/12/27 10:25:16;;;;;;;3.97;3.07;;;9.80;99.90;;;;;;5073379;28;20445;-57
2021/12/27 10:27:43;;;;;;;3.60;3.30;;;9.80;99.90;;;;;;5073438;28;20463;-55
2021/12/27 10:30:13;;;;;;;4.13;3.73;;;9.90;99.90;;;;;;5072671;28;20551;-58
2021/12/27 10:32:41;;;;;;;3.77;3.47;;;10.00;99.90;;;;;;5073036;28;20539;-57
2021/12/27 10:35:11;;;;;;;4.33;3.70;;;10.20;99.90;;;;;;5072776;28;20506;-57
2021/12/27 10:37:41;;;;;;;4.47;3.67;;;10.30;99.90;;;;;;5073152;28;20606;-56
2021/12/27 10:40:10;;;;;;;3.40;3.10;;;11.80;99.90;;;;;;5073049;28;20467;-57
2021/12/27 10:42:39;;;;;;;4.17;3.70;;;11.80;99.90;;;;;;5073184;28;20449;-57
2021/12/27 10:45:10;;;;;;;3.37;2.93;;;12.90;99.90;;;;;;5072761;28;20807;-57
2021/12/27 10:47:40;;;;;;;3.30;3.07;;;14.40;99.90;;;;;;5073362;28;20825;-58
2021/12/27 10:50:17;;;;;;;2.90;2.70;;;15.20;99.90;;;;;;5073024;28;20482;-58
2021/12/27 10:52:47;;;;;;;3.20;2.90;;;;;;;;;;5072834;28;20432;-58
2021/12/27 10:55:15;;;;;;;3.40;3.00;;;16.10;99.90;;;;;;5073032;28;20542;-57
2021/12/27 10:57:42;;;;;;;4.33;3.10;;;16.40;99.90;;;;;;5072854;28;20579;-58
2021/12/27 11:00:23;;;;;;;3.00;2.40;;;17.00;99.90;;;;;;5072566;28;20464;-58
2021/12/27 11:02:51;;;;;;;2.67;2.47;;;18.50;99.90;;;;;;5073141;28;20515;-58
2021/12/27 11:05:21;;;;;;;2.93;2.63;;;17.80;99.90;;;;;;5072431;28;20539;-58
2021/12/27 11:07:49;;;;;;;3.63;3.20;;;17.50;99.90;;;;;;5073067;28;20429;-57
2021/12/27 11:10:17;;;;;;;3.07;2.77;;;17.10;99.90;;;;;;5075913;28;20480;-58
2021/12/27 11:12:44;;;;;;;3.00;2.80;;;16.70;99.90;;;;;;5076600;28;20425;-57
2021/12/27 11:15:12;;;;;;;3.10;2.80;;;16.60;99.90;;;;;;5076850;28;20440;-57
2021/12/27 11:17:40;;;;;;;3.77;2.60;;;16.50;99.90;;;;;;5076794;28;20543;-57
2021/12/27 11:20:09;;;;;;;3.20;2.80;;;17.20;99.90;;;;;;5076558;28;20797;-58
2021/12/27 11:22:42;;;;;;;3.40;3.10;;;17.00;99.90;;;;;;5076413;28;20471;-57
2021/12/27 11:25:23;;;;;;;3.03;2.73;;;15.80;99.90;;;;;;5076286;28;20934;-57
2021/12/27 11:27:50;;;;;;;3.10;2.80;;;14.90;99.90;;;;;;5076131;28;20459;-58
2021/12/27 11:30:22;;;;;;;3.33;3.03;;;14.30;99.90;;;;;;5076078;28;20472;-58
2021/12/27 11:33:12;;;;;;;3.17;2.87;;;13.80;99.90;;;;;;5076088;28;20436;-57
2021/12/27 11:35:42;;;;;;;2.97;2.77;;;13.20;99.90;;;;;;5076258;28;20448;-57
2021/12/27 11:38:28;;;;;;;3.07;2.87;;;13.20;99.90;;;;;;5075882;28;20927;-57
2021/12/27 11:40:56;;;;;;;4.60;2.73;;;13.10;99.90;;;;;;5075847;28;20471;-57
2021/12/27 11:43:24;;;;;;;4.33;3.50;;;12.70;99.90;;;;;;5075744;28;20448;-57
2021/12/27 11:45:53;;;;;;;8.43;3.70;;;12.70;99.90;;;;;;5076186;28;20445;-57
2021/12/27 11:48:22;;;;;;;3.53;3.23;;;12.80;99.90;;;;;;5075911;28;20480;-57
2021/12/27 11:51:04;;;;;;;3.70;3.40;;;12.90;99.90;;;;;;5075954;28;20475;-57
2021/12/27 11:53:33;;;;;;;3.47;3.17;;;12.90;99.90;;;;;;5075587;28;20448;-57
2021/12/27 11:56:03;;;;;;;6.60;3.47;;;12.80;99.90;;;;;;5075755;28;20444;-57
2021/12/27 11:58:34;;;;;;;3.60;3.30;;;12.60;99.90;;;;;;5075648;28;20449;-57
2021/12/27 12:01:02;;;;;;;2.63;2.40;;;12.50;99.90;;;;;;5075805;28;20521;-58
2021/12/27 12:03:40;;;;;;;3.57;3.27;;;12.60;99.90;;;;;;5075403;28;20480;-57
2021/12/27 12:06:08;;;;;;;4.00;3.17;;;12.50;99.90;;;;;;5075899;28;20456;-57
2021/12/27 12:08:51;;;;;;;3.20;2.90;;;12.20;99.90;;;;;;5075630;28;20483;-57
2021/12/27 12:11:31;;;;;;;4.97;4.07;;;12.10;99.90;;;;;;5075115;28;20537;-57
2021/12/27 12:14:19;;;;;;;5.97;3.23;;;12.00;99.90;;;;;;5075601;28;20432;-57
2021/12/27 12:16:49;;;;;;;5.00;3.73;;;11.80;99.90;;;;;;5075129;28;20462;-57
2021/12/27 12:19:16;;;;;;;4.90;3.57;;;11.80;99.90;;;;;;5075081;28;20841;-57
2021/12/27 12:21:47;;;;;;;4.70;3.73;;;11.70;99.90;;;;;;5074535;28;20470;-57
2021/12/27 12:24:20;;;;;;;6.30;4.20;;;11.60;99.90;;;;;;5075417;28;20429;-57
2021/12/27 12:26:59;;;;;;;4.60;4.20;;;11.70;99.90;;;;;;5075336;28;20508;-56
2021/12/27 12:29:28;;;;;;;4.60;4.20;;;11.80;99.90;;;;;;5074924;28;20500;-56
2021/12/27 12:32:00;;;;;;;4.50;3.93;;;11.60;99.90;;;;;;5075037;28;20931;-56
2021/12/27 12:34:28;;;;;;;4.10;3.70;;;11.60;99.90;;;;;;5074740;28;20974;-56
2021/12/27 12:36:57;;;;;;;5.27;4.20;;;11.50;99.90;;;;;;5075053;28;20469;-56
2021/12/27 12:39:26;;;;;;;5.23;4.30;;;11.40;99.90;;;;;;5074971;28;20462;-57
2021/12/27 12:42:09;;;;;;;3.97;3.67;;;11.40;99.90;;;;;;5075035;28;20506;-57
2021/12/27 12:44:47;;;;;;;4.60;3.43;;;11.40;99.90;;;;;;5075110;28;20519;-57
2021/12/27 12:47:14;;;;;;;4.43;4.03;;;11.30;99.90;;;;;;5074642;28;20935;-57
2021/12/27 12:49:41;;;;;;;3.70;3.40;;;11.30;99.90;;;;;;5074451;28;20536;-57
2021/12/27 12:52:09;;;;;;;6.40;5.90;;;11.40;99.90;;;;;;5074446;28;20535;-57
2021/12/27 12:54:40;;;;;;;4.23;3.83;;;11.50;99.90;;;;;;5074830;28;20476;-57
2021/12/27 12:57:11;;;;;;;4.60;3.93;;;11.40;99.90;;;;;;5074480;28;20436;-57
2021/12/27 12:59:40;;;;;;;3.73;3.23;;;11.30;99.90;;;;;;5074829;28;20483;-57
2021/12/27 13:02:12;;;;;;;5.73;4.63;;;11.30;99.90;;;;;;5074789;28;20455;-58
2021/12/27 13:04:48;;;;;;;7.50;3.60;;;11.20;99.90;;;;;;5074712;28;20439;-57